Bluebell, Utah
Current Conditions -  °F | °C
As of 12:53 PM on Wednesday 17 Dec 2014 (Local Time) from KVEL Reporting Station
Overcast Overcast  
Wind Chill: 25°   Ceiling: 600
Heat Index: 25°   Visibility: 10mi
Dew Point: 22°   Wind: 0mph
Humidity: 88%   Direction: NA
Pressure: 30.02"   Gusts: NA
Location:  40.36°N, 110.22°W
Report Text: KVEL 171953Z AUTO 00000KT 10SM OVC006 M04/M06 A3002 RMK AO2 SLP200 T10391056
Loading
Personal Weather Stations






























Interactive Weather Map New forecast layout! Learn more

10-Day Weather Forecast

Advertisements
Track Severe Weather on mobile